Time;durP1;ratioP1;P1;durP2;ratioP2;P2;SDS_P1;SDS_P2;PMS_P1;PMS_P2;Temp;Humidity;BMP_temperature;BMP_pressure;BME280_temperature;BME280_humidity;BME280_pressure;Samples;Min_cycle;Max_cycle;Signal;HPM_P1;HPM_P2
2023/09/19 00:00:27;;;;;;;1.42;1.33;;;17.50;99.90;;;;;;5036082;28;21795;-70
2023/09/19 00:02:57;;;;;;;1.40;1.30;;;17.40;99.90;;;;;;5035105;28;20245;-70
2023/09/19 00:05:27;;;;;;;1.52;1.30;;;17.40;99.90;;;;;;5037021;28;20228;-70
2023/09/19 00:07:56;;;;;;;1.00;1.00;;;17.40;99.90;;;;;;5031814;28;20230;-70
2023/09/19 00:10:24;;;;;;;1.30;1.20;;;17.40;99.90;;;;;;5034596;28;20227;-70
2023/09/19 00:12:52;;;;;;;1.10;1.10;;;17.40;99.90;;;;;;5037854;28;20195;-70
2023/09/19 00:15:21;;;;;;;1.30;1.20;;;17.40;99.90;;;;;;5032614;28;20310;-70
2023/09/19 00:17:48;;;;;;;1.45;1.25;;;17.40;99.90;;;;;;5032307;28;20249;-70
2023/09/19 00:20:17;;;;;;;1.52;1.23;;;17.50;99.90;;;;;;5020827;28;20648;-70
2023/09/19 00:22:44;;;;;;;1.73;1.40;;;17.50;99.90;;;;;;5034355;28;20204;-71
2023/09/19 00:25:12;;;;;;;1.10;1.10;;;17.50;99.90;;;;;;5033871;28;20556;-70
2023/09/19 00:27:41;;;;;;;1.23;1.20;;;17.60;99.90;;;;;;5036903;28;20765;-71
2023/09/19 00:30:14;;;;;;;1.30;1.20;;;17.60;99.90;;;;;;5024868;28;20214;-70
2023/09/19 00:32:44;;;;;;;1.92;1.35;;;17.60;99.90;;;;;;5035304;28;20264;-70
2023/09/19 00:35:11;;;;;;;1.10;1.10;;;17.60;99.90;;;;;;5036184;28;20294;-70
2023/09/19 00:37:39;;;;;;;0.80;0.80;;;17.60;99.90;;;;;;5032961;28;20207;-70
2023/09/19 00:40:11;;;;;;;1.05;1.05;;;17.50;99.90;;;;;;5031168;28;20202;-70
2023/09/19 00:42:39;;;;;;;1.75;1.30;;;17.60;99.90;;;;;;5031637;28;20485;-70
2023/09/19 00:45:09;;;;;;;0.90;0.90;;;17.60;99.90;;;;;;5033916;28;20243;-70
2023/09/19 00:47:37;;;;;;;1.73;1.63;;;17.50;99.90;;;;;;5033179;28;20219;-70
2023/09/19 00:50:10;;;;;;;1.00;1.00;;;17.50;99.90;;;;;;5017742;28;20202;-70
2023/09/19 00:52:39;;;;;;;2.92;1.30;;;17.40;99.90;;;;;;5036517;28;20199;-70
2023/09/19 00:55:07;;;;;;;2.50;1.90;;;17.40;99.90;;;;;;5014637;28;20199;-69
2023/09/19 00:57:35;;;;;;;1.40;1.30;;;17.40;99.90;;;;;;5016623;28;20734;-70
2023/09/19 01:00:08;;;;;;;1.63;1.52;;;17.30;99.90;;;;;;5031847;28;20196;-70
2023/09/19 01:02:37;;;;;;;1.95;1.30;;;17.20;99.90;;;;;;5036998;28;20658;-70
2023/09/19 01:05:05;;;;;;;1.70;1.20;;;17.20;99.90;;;;;;5017525;28;20201;-70
2023/09/19 01:07:34;;;;;;;1.60;1.50;;;17.20;99.90;;;;;;5033389;28;20220;-70
2023/09/19 01:10:05;;;;;;;1.50;1.25;;;17.20;99.90;;;;;;5014374;28;20629;-70
2023/09/19 01:12:42;;;;;;;1.52;1.40;;;17.20;99.90;;;;;;5019891;28;20303;-70
2023/09/19 01:15:20;;;;;;;1.15;1.05;;;17.20;99.90;;;;;;5035661;28;20203;-70
2023/09/19 01:17:53;;;;;;;1.15;1.13;;;17.30;99.90;;;;;;5034093;28;20242;-70
2023/09/19 01:20:35;;;;;;;1.08;1.08;;;17.30;99.90;;;;;;5033667;28;20207;-70
2023/09/19 01:23:14;;;;;;;2.53;1.00;;;17.30;99.90;;;;;;5035155;28;20295;-70
2023/09/19 01:26:09;;;;;;;1.95;1.10;;;17.30;99.90;;;;;;5015886;28;20230;-70
2023/09/19 01:28:54;;;;;;;1.85;1.00;;;17.40;99.90;;;;;;5038194;28;20288;-70
2023/09/19 01:31:24;;;;;;;1.67;1.10;;;17.40;99.90;;;;;;5036704;28;20301;-70
2023/09/19 01:34:04;;;;;;;1.10;1.00;;;17.40;99.90;;;;;;5039232;28;20688;-70
2023/09/19 01:36:35;;;;;;;1.20;1.10;;;17.40;99.90;;;;;;5037390;28;20288;-71
2023/09/19 01:39:05;;;;;;;1.13;1.00;;;17.40;99.90;;;;;;5039775;28;20787;-71
2023/09/19 01:41:52;;;;;;;1.20;1.10;;;17.40;99.90;;;;;;5020965;28;20722;-71
2023/09/19 01:44:32;;;;;;;1.08;1.00;;;17.30;99.90;;;;;;5039024;28;20202;-71
2023/09/19 01:47:09;;;;;;;1.27;1.10;;;17.30;99.90;;;;;;5037368;28;20293;-71
2023/09/19 01:49:46;;;;;;;2.00;1.10;;;17.30;99.90;;;;;;5038948;28;20198;-70
2023/09/19 01:52:16;;;;;;;1.08;1.00;;;17.30;99.90;;;;;;5034377;28;20294;-70
2023/09/19 01:54:50;;;;;;;0.80;0.80;;;17.30;99.90;;;;;;5038446;28;20200;-71
2023/09/19 01:57:26;;;;;;;1.45;0.93;;;17.30;99.90;;;;;;5040508;28;20202;-71
2023/09/19 02:00:06;;;;;;;1.00;1.00;;;17.30;99.90;;;;;;5036650;28;20199;-71
2023/09/19 02:02:35;;;;;;;2.53;1.15;;;17.30;99.90;;;;;;5018166;28;20199;-71
2023/09/19 02:05:04;;;;;;;1.30;1.20;;;17.20;99.90;;;;;;5033178;28;20232;-71
2023/09/19 02:07:32;;;;;;;1.15;1.10;;;17.20;99.90;;;;;;5021814;28;20237;-71
2023/09/19 02:10:00;;;;;;;0.73;0.73;;;17.20;99.90;;;;;;5033243;28;20295;-71
2023/09/19 02:12:27;;;;;;;0.85;0.85;;;17.10;99.90;;;;;;5020328;28;20199;-71
2023/09/19 02:14:54;;;;;;;1.17;1.05;;;17.10;99.90;;;;;;5033390;28;20260;-71
2023/09/19 02:17:21;;;;;;;1.00;1.00;;;17.10;99.90;;;;;;5038302;28;20199;-71
2023/09/19 02:19:49;;;;;;;2.08;1.13;;;17.00;99.90;;;;;;5022502;28;20748;-71
2023/09/19 02:22:16;;;;;;;1.20;1.00;;;17.00;99.90;;;;;;5037742;28;20238;-71
2023/09/19 02:24:43;;;;;;;1.25;1.15;;;17.00;99.90;;;;;;5037256;28;20210;-71
2023/09/19 02:27:12;;;;;;;1.13;1.10;;;16.90;99.90;;;;;;5021293;28;20295;-71
2023/09/19 02:29:40;;;;;;;2.90;1.20;;;16.90;99.90;;;;;;5036102;28;20211;-71
2023/09/19 02:32:09;;;;;;;0.90;0.90;;;16.80;99.90;;;;;;5023589;28;20730;-70
2023/09/19 02:34:36;;;;;;;1.10;0.98;;;16.80;99.90;;;;;;5037845;28;20696;-70
2023/09/19 02:37:06;;;;;;;1.13;1.13;;;16.80;99.90;;;;;;5036447;28;20291;-70
2023/09/19 02:39:33;;;;;;;0.80;0.80;;;16.80;99.90;;;;;;5033808;28;20223;-70
2023/09/19 02:42:00;;;;;;;1.00;1.00;;;16.70;99.90;;;;;;5036881;28;20203;-70
2023/09/19 02:44:27;;;;;;;0.90;0.90;;;16.70;99.90;;;;;;5035802;28;20291;-70
2023/09/19 02:46:54;;;;;;;1.10;1.10;;;16.70;99.90;;;;;;5022302;28;20277;-70
2023/09/19 02:49:21;;;;;;;0.85;0.85;;;16.70;99.90;;;;;;5041059;28;20712;-70
2023/09/19 02:51:48;;;;;;;1.35;1.25;;;16.70;99.90;;;;;;5020722;28;20211;-70
2023/09/19 02:54:17;;;;;;;1.30;1.02;;;16.60;99.90;;;;;;5036932;28;20218;-70
2023/09/19 02:56:44;;;;;;;1.38;1.27;;;16.50;99.90;;;;;;5034598;28;20223;-70
2023/09/19 02:59:11;;;;;;;1.15;1.10;;;16.50;99.90;;;;;;5033009;28;20195;-70
2023/09/19 03:01:39;;;;;;;1.00;1.00;;;16.40;99.90;;;;;;5035795;28;20215;-70
2023/09/19 03:04:11;;;;;;;1.10;1.10;;;16.40;99.90;;;;;;5036108;28;20238;-70
2023/09/19 03:06:38;;;;;;;0.93;0.93;;;16.40;99.90;;;;;;5034570;28;20251;-70
2023/09/19 03:09:13;;;;;;;0.98;0.98;;;16.40;99.90;;;;;;5037038;28;20254;-70
2023/09/19 03:11:42;;;;;;;1.25;1.00;;;16.50;99.90;;;;;;5033720;28;20198;-70
2023/09/19 03:14:09;;;;;;;1.17;1.08;;;16.50;99.90;;;;;;5036901;28;20223;-70
2023/09/19 03:16:37;;;;;;;0.90;0.90;;;16.40;99.90;;;;;;5041693;28;20247;-70
2023/09/19 03:19:05;;;;;;;0.98;0.98;;;16.40;99.90;;;;;;5041206;28;20200;-70
2023/09/19 03:21:32;;;;;;;0.80;0.80;;;16.40;99.90;;;;;;5023120;28;20206;-70
2023/09/19 03:23:59;;;;;;;0.80;0.80;;;16.40;99.90;;;;;;5021303;28;20208;-71
2023/09/19 03:26:26;;;;;;;1.25;1.00;;;16.30;99.90;;;;;;5036227;28;20653;-70
2023/09/19 03:28:55;;;;;;;1.20;1.00;;;16.30;99.90;;;;;;5034778;28;20719;-70
2023/09/19 03:31:22;;;;;;;1.27;1.15;;;16.30;99.90;;;;;;5034102;28;20203;-70
2023/09/19 03:33:49;;;;;;;1.13;0.90;;;16.30;99.90;;;;;;5037603;28;20199;-70
2023/09/19 03:36:16;;;;;;;1.00;1.00;;;16.30;99.90;;;;;;5035926;28;20243;-70
2023/09/19 03:38:43;;;;;;;1.00;1.00;;;16.20;99.90;;;;;;5039369;28;20191;-70
2023/09/19 03:41:14;;;;;;;1.13;0.93;;;16.20;99.90;;;;;;5018041;28;20616;-70
2023/09/19 03:43:41;;;;;;;0.90;0.90;;;16.20;99.90;;;;;;5034329;28;20299;-70
2023/09/19 03:46:09;;;;;;;0.88;0.88;;;16.20;99.90;;;;;;5019718;28;20229;-70
2023/09/19 03:48:37;;;;;;;0.80;0.80;;;16.20;99.90;;;;;;5034611;28;20297;-70
2023/09/19 03:51:04;;;;;;;0.90;0.90;;;16.20;99.90;;;;;;5032293;28;20203;-70
2023/09/19 03:53:31;;;;;;;1.10;1.00;;;16.10;99.90;;;;;;5036894;28;20685;-70
2023/09/19 03:56:00;;;;;;;1.00;1.00;;;16.10;99.90;;;;;;5035998;28;20255;-70
2023/09/19 03:58:27;;;;;;;1.40;1.10;;;16.10;99.90;;;;;;5035886;28;20565;-70
2023/09/19 04:00:56;;;;;;;0.93;0.93;;;16.10;99.90;;;;;;5032343;28;20415;-70
2023/09/19 04:03:34;;;;;;;0.77;0.70;;;16.10;99.90;;;;;;5019923;28;20254;-70
2023/09/19 04:06:02;;;;;;;1.17;1.08;;;16.00;99.90;;;;;;5033769;28;20338;-70
2023/09/19 04:08:29;;;;;;;1.08;0.90;;;16.00;99.90;;;;;;5038381;28;20215;-70
2023/09/19 04:10:56;;;;;;;1.00;1.00;;;15.90;99.90;;;;;;5033281;28;20200;-70
2023/09/19 04:13:24;;;;;;;0.80;0.80;;;16.00;99.90;;;;;;5016434;28;20381;-70
2023/09/19 04:15:51;;;;;;;1.15;1.05;;;15.90;99.90;;;;;;5037129;28;20227;-70
2023/09/19 04:18:20;;;;;;;1.85;1.00;;;15.90;99.90;;;;;;5032428;28;20235;-70
2023/09/19 04:20:51;;;;;;;0.82;0.82;;;15.90;99.90;;;;;;5032606;28;20199;-70
2023/09/19 04:23:18;;;;;;;0.90;0.90;;;16.00;99.90;;;;;;5036705;28;20203;-70
2023/09/19 04:25:45;;;;;;;1.98;0.70;;;16.00;99.90;;;;;;5031872;28;20223;-70
2023/09/19 04:28:12;;;;;;;1.25;1.15;;;15.90;99.90;;;;;;5016790;28;20333;-70
2023/09/19 04:30:40;;;;;;;0.90;0.90;;;15.90;99.90;;;;;;5032990;28;20672;-70
2023/09/19 04:33:07;;;;;;;0.80;0.80;;;15.90;99.90;;;;;;5033188;28;20205;-70
2023/09/19 04:35:35;;;;;;;2.38;0.95;;;15.90;99.90;;;;;;5037182;28;20223;-70
2023/09/19 04:38:06;;;;;;;1.27;1.05;;;15.90;99.90;;;;;;5033191;28;20246;-71
2023/09/19 04:40:33;;;;;;;0.90;0.90;;;15.90;99.90;;;;;;5033762;28;20202;-70
2023/09/19 04:43:01;;;;;;;0.80;0.80;;;15.80;99.90;;;;;;5035492;28;20199;-70
2023/09/19 04:45:29;;;;;;;0.90;0.90;;;15.80;99.90;;;;;;5035681;28;20276;-70
2023/09/19 04:47:56;;;;;;;1.10;1.10;;;15.80;99.90;;;;;;5031812;28;20201;-70
2023/09/19 04:50:24;;;;;;;0.95;0.95;;;15.80;99.90;;;;;;5036453;28;20203;-70
2023/09/19 04:52:53;;;;;;;1.10;1.00;;;15.80;99.90;;;;;;5031115;28;20902;-70
2023/09/19 04:55:21;;;;;;;1.00;1.00;;;15.80;99.90;;;;;;5035353;28;20699;-70
2023/09/19 04:57:50;;;;;;;1.42;1.27;;;15.80;99.90;;;;;;5032240;28;20223;-70
2023/09/19 05:00:19;;;;;;;1.25;1.10;;;15.80;99.90;;;;;;5030850;28;20273;-70
2023/09/19 05:02:47;;;;;;;1.00;0.90;;;15.80;99.90;;;;;;5029373;28;20730;-70
2023/09/19 05:05:14;;;;;;;1.15;1.05;;;15.80;99.90;;;;;;5033964;28;20688;-70
2023/09/19 05:07:42;;;;;;;1.10;1.00;;;15.80;99.90;;;;;;5029925;28;20203;-70
2023/09/19 05:10:11;;;;;;;0.90;0.90;;;15.80;99.90;;;;;;5033933;28;20809;-70
2023/09/19 05:12:40;;;;;;;1.00;1.00;;;15.70;99.90;;;;;;5036691;28;20261;-69
2023/09/19 05:15:09;;;;;;;0.90;0.90;;;15.80;99.90;;;;;;5035898;28;20745;-70
2023/09/19 05:17:36;;;;;;;1.80;1.17;;;15.70;99.90;;;;;;5014823;28;20786;-69
2023/09/19 05:20:14;;;;;;;2.63;1.00;;;15.80;99.90;;;;;;5037268;28;20191;-69
2023/09/19 05:22:42;;;;;;;0.90;0.90;;;15.70;99.90;;;;;;5001741;28;20199;-70
2023/09/19 05:25:10;;;;;;;1.00;1.00;;;15.70;99.90;;;;;;5033069;28;20262;-69
2023/09/19 05:27:40;;;;;;;1.40;1.25;;;15.70;99.90;;;;;;5037597;28;20225;-70
2023/09/19 05:30:08;;;;;;;0.95;0.95;;;15.70;99.90;;;;;;5033410;28;20225;-70
2023/09/19 05:32:35;;;;;;;0.82;0.82;;;15.70;99.90;;;;;;5034899;28;20852;-70
2023/09/19 05:35:03;;;;;;;1.85;1.23;;;15.80;99.90;;;;;;5034094;28;20222;-70
2023/09/19 05:37:30;;;;;;;1.23;0.98;;;15.80;99.90;;;;;;5032762;28;20575;-70
2023/09/19 05:39:57;;;;;;;0.90;0.90;;;15.80;99.90;;;;;;5017521;28;20592;-70
2023/09/19 05:42:24;;;;;;;3.95;1.17;;;15.80;99.90;;;;;;5034134;28;20207;-70
2023/09/19 05:44:53;;;;;;;1.00;1.00;;;16.00;99.90;;;;;;5039581;28;20203;-70
2023/09/19 05:47:22;;;;;;;2.28;1.20;;;16.40;99.90;;;;;;5037010;28;20195;-70
2023/09/19 05:49:49;;;;;;;0.90;0.90;;;16.90;99.90;;;;;;5031348;28;20216;-70
2023/09/19 05:52:17;;;;;;;1.10;1.10;;;17.30;99.90;;;;;;5034760;28;20203;-70
2023/09/19 05:54:44;;;;;;;2.17;1.00;;;17.80;99.90;;;;;;5034551;28;20284;-70
2023/09/19 05:57:12;;;;;;;1.00;1.00;;;18.20;99.90;;;;;;5031751;28;20250;-70
2023/09/19 05:59:39;;;;;;;2.05;0.90;;;18.50;99.90;;;;;;5033366;28;20579;-70
2023/09/19 06:02:09;;;;;;;1.15;1.00;;;18.80;99.90;;;;;;5035480;28;21140;-70
2023/09/19 06:04:38;;;;;;;1.00;1.00;;;19.10;99.90;;;;;;5034121;28;20196;-70
2023/09/19 06:07:07;;;;;;;0.70;0.70;;;19.30;99.90;;;;;;5034175;28;20251;-70
2023/09/19 06:09:34;;;;;;;0.98;0.98;;;19.60;99.90;;;;;;5034099;28;20486;-70
2023/09/19 06:12:03;;;;;;;1.10;1.08;;;19.90;99.90;;;;;;5029998;28;20873;-70
2023/09/19 06:14:30;;;;;;;5.13;0.93;;;20.10;99.90;;;;;;5033675;28;20213;-70
2023/09/19 06:16:57;;;;;;;0.93;0.90;;;20.30;99.90;;;;;;5038289;28;20246;-70
2023/09/19 06:19:26;;;;;;;2.63;1.23;;;20.50;99.90;;;;;;5038442;28;20227;-70
2023/09/19 06:21:54;;;;;;;2.83;0.90;;;20.70;99.90;;;;;;5038148;28;20222;-70
2023/09/19 06:24:21;;;;;;;1.30;1.20;;;20.80;99.90;;;;;;5039725;28;20275;-70
2023/09/19 06:26:49;;;;;;;1.00;1.00;;;20.80;99.90;;;;;;5038403;28;20640;-70
2023/09/19 06:29:16;;;;;;;1.13;1.02;;;21.10;99.90;;;;;;5035708;28;20316;-70
2023/09/19 06:31:44;;;;;;;1.13;1.00;;;21.20;99.90;;;;;;5039301;28;20295;-70
2023/09/19 06:34:11;;;;;;;1.02;0.93;;;21.40;99.90;;;;;;5036214;28;20199;-70
2023/09/19 06:36:40;;;;;;;1.67;0.90;;;21.60;99.90;;;;;;5036803;28;20256;-70
2023/09/19 06:39:10;;;;;;;1.70;1.20;;;21.60;99.90;;;;;;5042709;28;20222;-70
2023/09/19 06:41:38;;;;;;;1.63;1.10;;;21.70;99.90;;;;;;5036709;28;20295;-70
2023/09/19 06:44:07;;;;;;;0.93;0.93;;;21.80;99.90;;;;;;5039050;28;20199;-70
2023/09/19 06:46:34;;;;;;;1.00;0.90;;;21.80;99.90;;;;;;5040284;28;20211;-71
2023/09/19 06:49:06;;;;;;;0.93;0.90;;;21.90;99.90;;;;;;5038222;28;20269;-70
2023/09/19 06:51:34;;;;;;;1.40;0.90;;;21.60;99.90;;;;;;5037092;28;20296;-70
2023/09/19 06:54:05;;;;;;;1.17;1.08;;;21.40;99.90;;;;;;5034216;28;20294;-69
2023/09/19 06:56:32;;;;;;;1.30;0.85;;;21.50;99.90;;;;;;5032170;28;20211;-71
2023/09/19 06:59:00;;;;;;;0.90;0.90;;;21.80;99.90;;;;;;5035884;28;20200;-71
2023/09/19 07:01:27;;;;;;;3.15;1.10;;;21.70;99.90;;;;;;5031983;28;20554;-71
2023/09/19 07:03:54;;;;;;;1.08;1.00;;;21.70;99.90;;;;;;5035045;28;20281;-71
2023/09/19 07:06:21;;;;;;;1.05;0.88;;;21.80;99.90;;;;;;5035125;28;20223;-70
2023/09/19 07:08:50;;;;;;;1.00;1.00;;;22.20;99.90;;;;;;5017073;28;20440;-70
2023/09/19 07:11:18;;;;;;;3.20;1.08;;;21.90;99.90;;;;;;5032681;28;20667;-70
2023/09/19 07:13:45;;;;;;;4.22;1.13;;;21.40;99.90;;;;;;5034630;28;20199;-70
2023/09/19 07:16:27;;;;;;;1.40;1.02;;;21.30;99.90;;;;;;5033631;28;21161;-70
2023/09/19 07:18:55;;;;;;;0.90;0.88;;;21.50;99.90;;;;;;5034118;28;20662;-70
2023/09/19 07:21:22;;;;;;;0.82;0.80;;;21.70;99.90;;;;;;5031823;28;20666;-69
2023/09/19 07:23:49;;;;;;;2.10;1.15;;;21.80;99.90;;;;;;5029286;28;20196;-70
2023/09/19 07:26:18;;;;;;;1.38;0.98;;;22.00;99.90;;;;;;5028199;28;20604;-70
2023/09/19 07:28:45;;;;;;;0.82;0.82;;;22.10;99.90;;;;;;5028703;28;20253;-70
2023/09/19 07:31:14;;;;;;;1.58;1.00;;;22.20;99.90;;;;;;5036079;28;20222;-70
2023/09/19 07:33:41;;;;;;;1.67;1.13;;;22.20;99.90;;;;;;5028270;28;20248;-70
2023/09/19 07:36:13;;;;;;;3.22;1.05;;;22.50;99.90;;;;;;5032145;28;20306;-70
2023/09/19 07:38:41;;;;;;;2.08;1.20;;;22.70;99.90;;;;;;5024131;28;20257;-70
2023/09/19 07:41:09;;;;;;;1.58;1.00;;;22.90;99.90;;;;;;5033916;28;20198;-71
2023/09/19 07:43:38;;;;;;;2.17;1.25;;;23.00;99.90;;;;;;5032474;28;20204;-71
2023/09/19 07:46:08;;;;;;;2.60;1.10;;;23.10;99.90;;;;;;5030550;28;20230;-71
2023/09/19 07:48:37;;;;;;;1.95;1.10;;;23.00;99.90;;;;;;5036184;28;20203;-71
2023/09/19 07:51:06;;;;;;;1.13;1.00;;;23.00;99.90;;;;;;5032867;28;20219;-70
2023/09/19 07:53:34;;;;;;;2.90;1.20;;;23.00;99.90;;;;;;5014348;28;20207;-70
2023/09/19 07:56:06;;;;;;;1.63;1.10;;;22.70;99.90;;;;;;5033565;28;20224;-71
2023/09/19 07:58:34;;;;;;;1.92;0.98;;;22.60;99.90;;;;;;5035929;28;20240;-71
2023/09/19 08:01:07;;;;;;;0.80;0.80;;;22.70;99.90;;;;;;5013238;28;20214;-71
2023/09/19 08:03:37;;;;;;;1.35;1.20;;;22.70;99.90;;;;;;5029219;28;20286;-71
2023/09/19 08:06:04;;;;;;;1.90;1.10;;;22.80;99.90;;;;;;5032323;28;20292;-71
2023/09/19 08:08:31;;;;;;;3.10;1.25;;;22.80;99.90;;;;;;5031672;28;20261;-71
2023/09/19 08:10:58;;;;;;;1.77;1.10;;;22.80;99.90;;;;;;5031615;28;20278;-71
2023/09/19 08:13:25;;;;;;;1.33;1.02;;;23.10;99.90;;;;;;5029989;28;20199;-71
2023/09/19 08:15:53;;;;;;;1.10;1.00;;;23.10;99.90;;;;;;5032817;28;20247;-71
2023/09/19 08:18:22;;;;;;;2.28;1.20;;;23.20;99.90;;;;;;5030757;28;20198;-70
2023/09/19 08:20:53;;;;;;;1.42;1.13;;;23.40;99.90;;;;;;5028157;28;20195;-71
2023/09/19 08:23:21;;;;;;;1.45;1.00;;;23.60;99.90;;;;;;5032707;28;20219;-71
2023/09/19 08:25:48;;;;;;;1.05;0.90;;;23.80;99.90;;;;;;5044699;28;20303;-71
2023/09/19 08:28:18;;;;;;;1.38;0.90;;;24.00;99.90;;;;;;5030428;28;20778;-71
2023/09/19 08:30:46;;;;;;;1.30;1.00;;;24.10;99.90;;;;;;5033611;28;20211;-71
2023/09/19 08:33:15;;;;;;;1.13;1.00;;;24.00;99.90;;;;;;5030985;28;20684;-71
2023/09/19 08:35:45;;;;;;;1.02;0.80;;;23.80;99.90;;;;;;5028708;28;20298;-71
2023/09/19 08:38:14;;;;;;;1.55;1.10;;;23.80;99.90;;;;;;5028492;28;20206;-71
2023/09/19 08:40:42;;;;;;;1.05;0.95;;;24.10;99.90;;;;;;5031882;28;20657;-70
2023/09/19 08:43:09;;;;;;;2.17;0.90;;;24.00;99.90;;;;;;5034866;28;20206;-70
2023/09/19 08:45:37;;;;;;;1.10;1.00;;;23.60;99.90;;;;;;5011528;28;20223;-71
2023/09/19 08:48:23;;;;;;;3.40;1.20;;;22.90;99.90;;;;;;5033112;28;20576;-71
2023/09/19 08:50:56;;;;;;;2.28;1.27;;;23.10;99.90;;;;;;5025630;28;20215;-71
2023/09/19 08:53:37;;;;;;;2.45;0.90;;;23.30;99.90;;;;;;5018148;28;20206;-71
2023/09/19 08:56:09;;;;;;;1.80;1.00;;;23.30;99.90;;;;;;5021003;28;20712;-71
2023/09/19 08:58:46;;;;;;;3.17;0.90;;;23.20;99.90;;;;;;5025003;28;20330;-71
2023/09/19 09:01:16;;;;;;;2.95;1.10;;;23.10;99.90;;;;;;5029508;28;20283;-71
2023/09/19 09:03:46;;;;;;;2.33;0.98;;;23.20;99.90;;;;;;5026873;28;20706;-71
2023/09/19 09:06:16;;;;;;;2.58;1.17;;;23.20;99.90;;;;;;5026223;28;20729;-72
2023/09/19 09:08:44;;;;;;;4.90;1.10;;;23.30;99.90;;;;;;5028069;28;20195;-72
2023/09/19 09:11:12;;;;;;;2.15;0.90;;;23.10;99.90;;;;;;5015103;28;20831;-71
2023/09/19 09:13:41;;;;;;;2.47;1.20;;;23.20;99.90;;;;;;5011127;28;20672;-72
2023/09/19 09:16:09;;;;;;;2.03;1.00;;;23.60;99.90;;;;;;5036520;28;20280;-72
2023/09/19 09:18:37;;;;;;;1.05;1.00;;;23.80;99.90;;;;;;5028070;28;20302;-72
2023/09/19 09:21:05;;;;;;;2.72;1.10;;;23.80;99.90;;;;;;5026766;28;20191;-72
2023/09/19 09:23:33;;;;;;;1.10;1.10;;;23.90;99.90;;;;;;5028372;28;20207;-72
2023/09/19 09:26:02;;;;;;;4.35;0.98;;;24.10;99.90;;;;;;5027694;28;20765;-72
2023/09/19 09:28:31;;;;;;;1.05;0.95;;;24.40;99.90;;;;;;5025204;28;20199;-71
2023/09/19 09:30:59;;;;;;;1.65;1.30;;;24.60;99.90;;;;;;5013456;28;20224;-72
2023/09/19 09:33:27;;;;;;;1.90;0.90;;;24.80;99.90;;;;;;5029538;28;20204;-72
2023/09/19 09:35:59;;;;;;;1.48;0.95;;;25.20;99.90;;;;;;5028017;28;20512;-72
2023/09/19 09:38:28;;;;;;;2.63;1.00;;;25.30;99.90;;;;;;5031099;28;20202;-72
2023/09/19 09:41:03;;;;;;;1.27;0.95;;;25.40;99.90;;;;;;5009358;28;20740;-72
2023/09/19 09:43:35;;;;;;;1.38;0.90;;;25.50;99.90;;;;;;5013845;28;20615;-72
2023/09/19 09:46:54;;;;;;;0.88;0.80;;;25.80;99.90;;;;;;5029819;28;20219;-72
2023/09/19 09:49:26;;;;;;;2.10;1.10;;;25.90;99.90;;;;;;5033163;28;20705;-72
2023/09/19 09:52:05;;;;;;;4.15;1.00;;;25.50;99.90;;;;;;5034456;28;20567;-72
2023/09/19 09:54:36;;;;;;;2.20;0.90;;;25.20;99.90;;;;;;5033532;28;20294;-71
2023/09/19 09:57:16;;;;;;;2.33;0.95;;;25.40;99.90;;;;;;5037265;28;20236;-72
2023/09/19 09:59:48;;;;;;;2.33;1.00;;;25.60;99.90;;;;;;5037219;28;20840;-72
2023/09/19 10:02:20;;;;;;;1.73;0.90;;;25.50;99.90;;;;;;5036629;28;20234;-72
2023/09/19 10:04:58;;;;;;;2.55;0.88;;;25.50;99.90;;;;;;5038384;28;20734;-72
2023/09/19 10:07:31;;;;;;;1.58;0.80;;;25.50;99.90;;;;;;5038401;28;20203;-72
2023/09/19 10:10:09;;;;;;;2.60;1.10;;;25.50;99.90;;;;;;5039216;28;20219;-72
2023/09/19 10:12:43;;;;;;;2.75;1.00;;;25.60;99.90;;;;;;5003938;28;20320;-73
2023/09/19 10:15:16;;;;;;;1.05;0.95;;;25.60;99.90;;;;;;5035821;28;20287;-72
2023/09/19 10:17:45;;;;;;;2.38;0.90;;;25.70;99.90;;;;;;5034728;28;20286;-73
2023/09/19 10:23:09;;;;;;;1.20;1.10;;;26.00;99.90;;;;;;5024294;28;20192;-72
2023/09/19 10:25:38;;;;;;;2.97;1.10;;;26.00;99.90;;;;;;5034513;28;20220;-73
2023/09/19 10:28:10;;;;;;;1.35;0.90;;;26.10;99.90;;;;;;5032190;28;20731;-73
2023/09/19 10:30:43;;;;;;;1.58;0.82;;;25.90;99.90;;;;;;5034441;28;20758;-72
2023/09/19 10:33:10;;;;;;;1.10;0.90;;;25.70;99.90;;;;;;5034861;28;20206;-74
2023/09/19 10:35:41;;;;;;;1.27;0.80;;;25.70;99.90;;;;;;5032177;28;20254;-74
2023/09/19 10:38:10;;;;;;;1.17;1.02;;;25.80;99.90;;;;;;5035889;28;20287;-74
2023/09/19 10:40:42;;;;;;;1.23;0.95;;;26.00;99.90;;;;;;5036425;28;20199;-74
2023/09/19 10:43:14;;;;;;;0.90;0.90;;;26.00;99.90;;;;;;5035402;28;20204;-74
2023/09/19 10:45:42;;;;;;;1.67;0.98;;;26.00;99.90;;;;;;5018769;28;20908;-74
2023/09/19 10:48:10;;;;;;;1.10;0.90;;;26.00;99.90;;;;;;5025217;28;20210;-74
2023/09/19 10:50:46;;;;;;;1.65;1.10;;;26.00;99.90;;;;;;5030779;28;20424;-73
2023/09/19 10:53:15;;;;;;;0.93;0.70;;;26.00;99.90;;;;;;5033568;28;20222;-73
2023/09/19 10:55:51;;;;;;;2.30;1.10;;;26.00;99.90;;;;;;5002826;28;20226;-73
2023/09/19 10:58:28;;;;;;;1.30;1.02;;;25.90;99.90;;;;;;5032739;28;20225;-73
2023/09/19 11:00:57;;;;;;;3.30;0.90;;;26.10;99.90;;;;;;5029719;28;20195;-74
2023/09/19 11:03:30;;;;;;;1.15;0.80;;;26.40;99.90;;;;;;5016935;28;20209;-73
2023/09/19 11:06:13;;;;;;;1.95;1.15;;;26.60;99.90;;;;;;5031426;28;20326;-73
2023/09/19 11:09:21;;;;;;;1.95;1.00;;;26.50;99.90;;;;;;5031928;28;20199;-73
2023/09/19 11:11:54;;;;;;;1.45;0.90;;;26.30;99.90;;;;;;4991693;28;20231;-73
2023/09/19 11:14:38;;;;;;;2.92;1.25;;;26.40;99.90;;;;;;5017235;28;20239;-72
2023/09/19 11:17:34;;;;;;;1.13;1.00;;;26.50;99.90;;;;;;5029210;28;20254;-72
2023/09/19 11:23:30;;;;;;;1.05;0.98;;;26.70;99.90;;;;;;5028945;28;20207;-72
2023/09/19 11:25:57;;;;;;;1.25;1.15;;;26.90;99.90;;;;;;5029802;28;20467;-72
2023/09/19 11:28:34;;;;;;;1.10;1.00;;;26.80;99.90;;;;;;5033775;28;20199;-72
2023/09/19 11:31:40;;;;;;;3.25;0.90;;;26.60;99.90;;;;;;5034281;28;20221;-72
2023/09/19 11:34:50;;;;;;;2.45;1.05;;;26.50;99.90;;;;;;5018469;28;20237;-72
2023/09/19 11:38:15;;;;;;;1.75;1.10;;;26.70;99.90;;;;;;5015421;28;20305;-72
2023/09/19 11:40:55;;;;;;;1.42;1.00;;;26.90;99.90;;;;;;5030974;28;20195;-73
2023/09/19 11:43:41;;;;;;;1.52;0.80;;;27.10;99.90;;;;;;5033487;28;20217;-72
2023/09/19 11:46:10;;;;;;;0.90;0.90;;;27.00;99.90;;;;;;5000662;28;20272;-72
2023/09/19 11:48:41;;;;;;;0.82;0.82;;;26.70;99.90;;;;;;5030783;28;20235;-72
2023/09/19 11:51:27;;;;;;;0.75;0.75;;;26.60;99.90;;;;;;5027515;28;20225;-73
2023/09/19 11:53:55;;;;;;;2.55;1.20;;;26.60;99.90;;;;;;5031617;28;20206;-72
2023/09/19 11:56:24;;;;;;;1.52;1.00;;;26.80;99.90;;;;;;5036732;28;20222;-73
2023/09/19 11:58:54;;;;;;;1.58;0.80;;;26.90;99.90;;;;;;5038250;28;20207;-72
2023/09/19 12:01:35;;;;;;;1.10;1.00;;;27.00;99.90;;;;;;5036532;28;20223;-72
2023/09/19 12:04:04;;;;;;;1.25;1.10;;;27.00;99.90;;;;;;5036776;28;20213;-72
2023/09/19 12:06:32;;;;;;;1.20;0.73;;;26.90;99.90;;;;;;5021337;28;20666;-72
2023/09/19 12:09:00;;;;;;;2.08;1.00;;;26.70;99.90;;;;;;5033235;28;20712;-72
2023/09/19 12:11:33;;;;;;;1.00;0.82;;;26.70;99.90;;;;;;5037192;28;20272;-73
2023/09/19 12:14:01;;;;;;;1.30;1.00;;;26.60;99.90;;;;;;5030164;28;20302;-72
2023/09/19 12:16:30;;;;;;;0.82;0.80;;;26.70;99.90;;;;;;5032799;28;20228;-73
2023/09/19 12:18:58;;;;;;;0.82;0.82;;;26.80;99.90;;;;;;5032099;28;20298;-72
2023/09/19 12:21:31;;;;;;;1.20;1.10;;;27.00;99.90;;;;;;5034996;28;20244;-72
2023/09/19 12:24:13;;;;;;;0.90;0.90;;;27.20;99.90;;;;;;5034169;28;20195;-72
2023/09/19 12:26:45;;;;;;;0.77;0.77;;;27.20;99.90;;;;;;5036391;28;20226;-72
2023/09/19 12:29:14;;;;;;;2.83;1.10;;;27.30;99.90;;;;;;5041284;28;20207;-72
2023/09/19 12:31:55;;;;;;;2.00;1.00;;;27.40;99.90;;;;;;5037837;28;20210;-73
2023/09/19 12:34:26;;;;;;;1.10;1.00;;;27.10;99.90;;;;;;5036048;28;20250;-72
2023/09/19 12:37:11;;;;;;;0.88;0.85;;;27.10;99.90;;;;;;5035769;28;20221;-72
2023/09/19 12:39:40;;;;;;;0.95;0.82;;;27.10;99.90;;;;;;5036382;28;20252;-72
2023/09/19 12:42:09;;;;;;;0.80;0.80;;;27.20;99.90;;;;;;5038009;28;20241;-72
2023/09/19 12:44:38;;;;;;;1.70;1.25;;;27.10;99.90;;;;;;5033670;28;20394;-72
2023/09/19 12:47:15;;;;;;;1.30;0.95;;;27.10;99.90;;;;;;5036958;28;20210;-72
2023/09/19 12:50:13;;;;;;;1.17;0.70;;;27.10;99.90;;;;;;5034810;28;20215;-72
2023/09/19 12:52:41;;;;;;;0.95;0.82;;;27.40;99.90;;;;;;5034066;28;20218;-72
2023/09/19 12:55:10;;;;;;;1.02;0.93;;;27.10;99.90;;;;;;5031516;28;20288;-72
2023/09/19 12:57:39;;;;;;;0.98;0.90;;;26.90;99.90;;;;;;5038196;28;20206;-72
2023/09/19 13:00:07;;;;;;;3.50;0.77;;;26.70;99.90;;;;;;5035420;28;20207;-72
2023/09/19 13:02:36;;;;;;;0.75;0.73;;;26.60;99.90;;;;;;5017858;28;20198;-72
2023/09/19 13:05:06;;;;;;;1.17;1.08;;;26.80;99.90;;;;;;5031243;28;20261;-73
2023/09/19 13:07:49;;;;;;;1.00;0.80;;;27.10;99.90;;;;;;5037139;28;20210;-72
2023/09/19 13:10:16;;;;;;;0.98;0.98;;;27.20;99.90;;;;;;5038961;28;20209;-72
2023/09/19 13:12:47;;;;;;;1.00;0.90;;;27.20;99.90;;;;;;5031229;28;20676;-72